Aérodrome :
LOGIN :

S'inscrire | Disclaimer

   EN    FR    IT 

 










Légende :    VFR   VFR Marginal   IFR   IFR Intensif   IFR Très Intensif
Visi : 
Plafond : 
>= 8 km
>= 3000ft
5 à 8 km
1000 à 3000 ft
1500m à 5 km
500 à 1000 ft
800 à 1500m
200 à 500 ft
< 800m
< 200 ft
Symboles :   Orages  Brouillard  Fortes neiges  Fortes précipitations  Vent > 20 kt
SIGMETs :   Divers  Orages  Givrage  Turbulence  Onde Orograph.  Cendres Volcan.







- Altitude de l'aérodrome : 1465 ft


LSMP - Payerne

DERNIER METAR :
  • 271350Z 34007KT 300V020 9999 FEW064 SCT074 20/10 Q1010 RMK BLU+

METARs EXPIRÉS :
  • 271320Z 36006KT 300V050 9999 FEW047 21/10 Q1010 RMK BLU+
  • 271250Z 34005KT 290V050 CAVOK 21/11 Q1010 RMK BLU
  • 271220Z 36005KT 290V070 CAVOK 20/11 Q1010 RMK BLU
  • 271150Z 36005KT 320V030 CAVOK 20/10 Q1011 RMK BLU
  • 271120Z 35006KT 300V050 9999 FEW058 20/11 Q1011 RMK BLU+

Prévision TAF périmée.
Pas de NOTAMs connus pour ce terrain.



MET'MAP, la Météo Aéronautique d'un coup d'oeil ! - Copyright ORBIFLY Décembre 2007 - Disclaimer

ORBIFLY MET'MAP TEAM :

Programmation & Développement : Alexandra Zaïnal
Conception & Développement : Baudouin d'Aumeries
Co-Programmation & Développement : Marc-Olivier Méhu
Soutien technique & logistique : Manuel Goepfert

Contact : metmap@orbifly.com




SOURCES & CREDITS :

   NOAA